PWSweather.com
Personal Weather Stations
Station Observations
ISANTACA4
Capoeiras Weather Station, Florianopolis, SC 88070450

Capoeiras Weather StationFlorianopolis, SC 88070450

Lat: -27.596, Lon: -48.588

Elevation: 133

Station Type: Oregon WMR 928NX

Latest ConditionsUpdated 9:45:00 AM GMT-03:57 Friday, Dec 19, 2014
Currently Today's Max Today's Min Today's Average
Temperature 70.3°F21.3°C 72.1°F22.3°C 68.4°F20.2°C 70.5°F21.4°C
Dew Point 68.2°F20.1°C 68.7°F20.4°C 64.7°F18.2°C 67.1°F19.5°C
Winds Calm Calm Calm Calm - Calm Calm
Wind Gusts -- -- - -
Humidity 93% 93% 81% 89%
Pressure 29.91 in1012.9 mb 29.91 in1012.9 mb 29.86 in1011.2 mb -
Precipitation - 0.41 in10.4 mm - -
Hour Temp Dew Point Humidity Winds Wind Gusts Pressure Precip Precip Rate Daily Precip Total
09:45 AM 70.3°F21.3°C 68.2°F20.1°C 93% Calm Calm -- 29.91 in1012.9 mb 0.09 in2.3 mm 0.00 in/hr0.0 mm/hr 0.41 in10.4 mm
09:30 AM 70.0°F21.1°C 67.5°F19.7°C 92% Calm Calm -- 29.91 in1012.9 mb 0.41 in10.4 mm 0.04 in/hr1.0 mm/hr 0.41 in10.4 mm
09:15 AM 70.0°F21.1°C 67.5°F19.7°C 92% Calm Calm -- 29.91 in1012.9 mb 0.40 in10.2 mm 0.04 in/hr1.0 mm/hr 0.40 in10.2 mm
09:00 AM 69.6°F20.9°C 66.6°F19.2°C 90% Calm Calm -- 29.91 in1012.9 mb 0.39 in9.9 mm 0.09 in/hr2.3 mm/hr 0.39 in9.9 mm
08:45 AM 71.1°F21.7°C 67.3°F19.6°C 88% Calm Calm -- 29.90 in1012.5 mb 0.32 in8.1 mm 1.28 in/hr32.5 mm/hr 0.32 in8.1 mm
08:30 AM 71.8°F22.1°C 66.0°F18.9°C 82% Calm Calm -- 29.91 in1012.9 mb 0.00 in0.0 mm 0.00 in/hr0.0 mm/hr 0.00 in0.0 mm
08:15 AM 72.1°F22.3°C 66.3°F19.1°C 82% Calm Calm -- 29.90 in1012.5 mb 0.00 in0.0 mm 0.00 in/hr0.0 mm/hr 0.00 in0.0 mm
08:00 AM 72.0°F22.2°C 65.8°F18.8°C 81% Calm Calm -- 29.89 in1012.2 mb 0.00 in0.0 mm 0.00 in/hr0.0 mm/hr 0.00 in0.0 mm
07:45 AM 71.4°F21.9°C 66.0°F18.9°C 83% Calm Calm -- 29.89 in1012.2 mb 0.00 in0.0 mm 0.00 in/hr0.0 mm/hr 0.00 in0.0 mm
07:30 AM 70.9°F21.6°C 65.8°F18.8°C 84% Calm Calm -- 29.89 in1012.2 mb 0.00 in0.0 mm 0.00 in/hr0.0 mm/hr 0.00 in0.0 mm
07:15 AM 70.5°F21.4°C 65.4°F18.6°C 84% Calm Calm -- 29.89 in1012.2 mb 0.00 in0.0 mm 0.00 in/hr0.0 mm/hr 0.00 in0.0 mm
07:00 AM 70.2°F21.2°C 64.8°F18.2°C 83% Calm Calm -- 29.88 in1011.9 mb 0.00 in0.0 mm 0.00 in/hr0.0 mm/hr 0.00 in0.0 mm
06:45 AM 69.8°F21.0°C 65.1°F18.4°C 85% Calm Calm -- 29.88 in1011.9 mb 0.00 in0.0 mm 0.00 in/hr0.0 mm/hr 0.00 in0.0 mm
06:30 AM 69.1°F20.6°C 64.7°F18.2°C 86% Calm Calm -- 29.88 in1011.9 mb 0.00 in0.0 mm 0.00 in/hr0.0 mm/hr 0.00 in0.0 mm
06:15 AM 68.7°F20.4°C 65.7°F18.7°C 90% Calm Calm -- 29.87 in1011.5 mb 0.00 in0.0 mm 0.00 in/hr0.0 mm/hr 0.00 in0.0 mm
06:00 AM 68.4°F20.2°C 65.6°F18.7°C 91% Calm Calm -- 29.87 in1011.5 mb 0.00 in0.0 mm 0.00 in/hr0.0 mm/hr 0.00 in0.0 mm
05:45 AM 69.3°F20.7°C 66.8°F19.3°C 92% Calm Calm -- 29.87 in1011.5 mb 0.00 in0.0 mm 0.00 in/hr0.0 mm/hr 0.00 in0.0 mm
05:30 AM 69.3°F20.7°C 67.1°F19.5°C 93% Calm Calm -- 29.87 in1011.5 mb 0.00 in0.0 mm 0.00 in/hr0.0 mm/hr 0.00 in0.0 mm
05:15 AM 69.1°F20.6°C 66.7°F19.3°C 92% Calm Calm -- 29.87 in1011.5 mb 0.00 in0.0 mm 0.00 in/hr0.0 mm/hr 0.00 in0.0 mm
05:00 AM 68.9°F20.5°C 66.5°F19.2°C 92% Calm Calm -- 29.87 in1011.5 mb 0.00 in0.0 mm 0.00 in/hr0.0 mm/hr 0.00 in0.0 mm
04:45 AM 69.3°F20.7°C 67.1°F19.5°C 93% Calm Calm -- 29.87 in1011.5 mb 0.00 in0.0 mm 0.00 in/hr0.0 mm/hr 0.00 in0.0 mm
04:30 AM 69.6°F20.9°C 67.5°F19.7°C 93% Calm Calm -- 29.86 in1011.2 mb 0.00 in0.0 mm 0.00 in/hr0.0 mm/hr 0.00 in0.0 mm
04:15 AM 69.6°F20.9°C 67.2°F19.6°C 92% Calm Calm -- 29.86 in1011.2 mb 0.00 in0.0 mm 0.00 in/hr0.0 mm/hr 0.00 in0.0 mm
04:00 AM 70.2°F21.2°C 67.7°F19.8°C 92% Calm Calm -- 29.86 in1011.2 mb 0.00 in0.0 mm 0.00 in/hr0.0 mm/hr 0.00 in0.0 mm
03:45 AM 70.3°F21.3°C 67.9°F19.9°C 92% Calm Calm -- 29.86 in1011.2 mb 0.00 in0.0 mm 0.00 in/hr0.0 mm/hr 0.00 in0.0 mm
03:30 AM 70.5°F21.4°C 68.1°F20.1°C 92% Calm Calm -- 29.86 in1011.2 mb 0.00 in0.0 mm 0.00 in/hr0.0 mm/hr 0.00 in0.0 mm
03:15 AM 70.9°F21.6°C 68.4°F20.2°C 92% Calm Calm -- 29.86 in1011.2 mb 0.00 in0.0 mm 0.00 in/hr0.0 mm/hr 0.00 in0.0 mm
03:00 AM 70.9°F21.6°C 68.4°F20.2°C 92% Calm Calm -- 29.86 in1011.2 mb 0.00 in0.0 mm 0.00 in/hr0.0 mm/hr 0.00 in0.0 mm
02:45 AM 70.7°F21.5°C 67.9°F19.9°C 91% Calm Calm -- 29.86 in1011.2 mb 0.00 in0.0 mm 0.00 in/hr0.0 mm/hr 0.00 in0.0 mm
02:30 AM 70.9°F21.6°C 68.1°F20.1°C 91% Calm Calm -- 29.87 in1011.5 mb 0.00 in0.0 mm 0.00 in/hr0.0 mm/hr 0.00 in0.0 mm
02:15 AM 71.2°F21.8°C 68.5°F20.3°C 91% Calm Calm -- 29.87 in1011.5 mb 0.00 in0.0 mm 0.00 in/hr0.0 mm/hr 0.00 in0.0 mm
02:00 AM 71.4°F21.9°C 68.3°F20.2°C 90% Calm Calm -- 29.87 in1011.5 mb 0.00 in0.0 mm 0.00 in/hr0.0 mm/hr 0.00 in0.0 mm
01:45 AM 71.2°F21.8°C 67.8°F19.9°C 89% Calm Calm -- 29.88 in1011.9 mb 0.00 in0.0 mm 0.00 in/hr0.0 mm/hr 0.00 in0.0 mm
01:30 AM 71.2°F21.8°C 67.8°F19.9°C 89% Calm Calm -- 29.89 in1012.2 mb 0.00 in0.0 mm 0.00 in/hr0.0 mm/hr 0.00 in0.0 mm
01:15 AM 71.2°F21.8°C 67.8°F19.9°C 89% Calm Calm -- 29.89 in1012.2 mb 0.00 in0.0 mm 0.00 in/hr0.0 mm/hr 0.00 in0.0 mm
01:00 AM 71.2°F21.8°C 68.2°F20.1°C 90% Calm Calm -- 29.89 in1012.2 mb 0.00 in0.0 mm 0.00 in/hr0.0 mm/hr 0.00 in0.0 mm
12:45 AM 71.2°F21.8°C 68.2°F20.1°C 90% Calm Calm -- 29.89 in1012.2 mb 0.00 in0.0 mm 0.00 in/hr0.0 mm/hr 0.00 in0.0 mm
12:30 AM 71.4°F21.9°C 68.3°F20.2°C 90% Calm Calm -- 29.89 in1012.2 mb 0.00 in0.0 mm 0.00 in/hr0.0 mm/hr 0.00 in0.0 mm
12:15 AM 71.8°F22.1°C 68.7°F20.4°C 90% Calm Calm -- 29.89 in1012.2 mb 0.00 in0.0 mm 0.00 in/hr0.0 mm/hr 0.00 in0.0 mm
12:00 AM 72.0°F22.2°C 68.5°F20.3°C 89% Calm Calm -- 29.90 in1012.5 mb 0.00 in0.0 mm 0.00 in/hr0.0 mm/hr 0.00 in0.0 mm